sensor_id;sensor_type;location;lat;lon;timestamp;pressure;altitude;pressure_sealevel;temperature;humidity
32733;BME280;11867;51.198;11.966;2024-02-26T00:00:00;99159.16;;;1.95;100.00
32733;BME280;11867;51.198;11.966;2024-02-26T00:05:23;99158.75;;;2.08;100.00
32733;BME280;11867;51.198;11.966;2024-02-26T00:10:46;99154.28;;;1.92;100.00
32733;BME280;11867;51.198;11.966;2024-02-26T00:16:10;99150.53;;;1.66;100.00
32733;BME280;11867;51.198;11.966;2024-02-26T00:21:33;99150.00;;;1.69;100.00
32733;BME280;11867;51.198;11.966;2024-02-26T00:26:56;99144.84;;;1.18;100.00
32733;BME280;11867;51.198;11.966;2024-02-26T00:32:20;99143.13;;;1.78;100.00
32733;BME280;11867;51.198;11.966;2024-02-26T00:37:43;99125.91;;;2.33;97.20
32733;BME280;11867;51.198;11.966;2024-02-26T00:43:06;99115.53;;;1.38;100.00
32733;BME280;11867;51.198;11.966;2024-02-26T00:48:30;99118.53;;;1.64;100.00
32733;BME280;11867;51.198;11.966;2024-02-26T00:53:54;99126.69;;;1.74;99.95
32733;BME280;11867;51.198;11.966;2024-02-26T00:59:17;99125.97;;;1.35;100.00
32733;BME280;11867;51.198;11.966;2024-02-26T01:04:41;99120.78;;;1.99;98.40
32733;BME280;11867;51.198;11.966;2024-02-26T01:10:04;99116.84;;;1.58;98.38
32733;BME280;11867;51.198;11.966;2024-02-26T01:15:28;99100.13;;;1.07;100.00
32733;BME280;11867;51.198;11.966;2024-02-26T01:20:52;99101.28;;;0.94;100.00
32733;BME280;11867;51.198;11.966;2024-02-26T01:26:16;99094.09;;;0.77;100.00
32733;BME280;11867;51.198;11.966;2024-02-26T01:31:39;99091.78;;;0.86;100.00
32733;BME280;11867;51.198;11.966;2024-02-26T01:37:03;99084.34;;;0.71;100.00
32733;BME280;11867;51.198;11.966;2024-02-26T01:42:26;99077.75;;;1.01;100.00
32733;BME280;11867;51.198;11.966;2024-02-26T01:47:50;99070.03;;;0.66;100.00
32733;BME280;11867;51.198;11.966;2024-02-26T01:53:16;99075.09;;;0.45;100.00
32733;BME280;11867;51.198;11.966;2024-02-26T01:58:40;99074.69;;;0.53;100.00
32733;BME280;11867;51.198;11.966;2024-02-26T02:04:04;99072.09;;;0.25;100.00
32733;BME280;11867;51.198;11.966;2024-02-26T02:09:28;99075.53;;;0.76;100.00
32733;BME280;11867;51.198;11.966;2024-02-26T02:14:51;99086.97;;;0.49;100.00
32733;BME280;11867;51.198;11.966;2024-02-26T02:20:15;99094.44;;;1.47;100.00
32733;BME280;11867;51.198;11.966;2024-02-26T02:25:40;99095.78;;;1.99;96.67
32733;BME280;11867;51.198;11.966;2024-02-26T02:31:03;99095.84;;;2.41;92.19
32733;BME280;11867;51.198;11.966;2024-02-26T02:36:26;99100.97;;;1.56;95.90
32733;BME280;11867;51.198;11.966;2024-02-26T02:41:50;99100.22;;;1.61;97.23
32733;BME280;11867;51.198;11.966;2024-02-26T02:47:13;99105.88;;;2.51;91.01
32733;BME280;11867;51.198;11.966;2024-02-26T02:52:36;99113.50;;;2.00;93.27
32733;BME280;11867;51.198;11.966;2024-02-26T02:58:01;99116.63;;;2.19;93.87
32733;BME280;11867;51.198;11.966;2024-02-26T03:03:23;99105.78;;;2.36;92.14
32733;BME280;11867;51.198;11.966;2024-02-26T03:08:47;99105.94;;;2.61;90.50
32733;BME280;11867;51.198;11.966;2024-02-26T03:14:11;99098.59;;;2.14;91.77
32733;BME280;11867;51.198;11.966;2024-02-26T03:19:35;99095.56;;;1.51;98.11
32733;BME280;11867;51.198;11.966;2024-02-26T03:25:01;99098.91;;;2.23;92.63
32733;BME280;11867;51.198;11.966;2024-02-26T03:30:25;99097.59;;;1.93;93.29
32733;BME280;11867;51.198;11.966;2024-02-26T03:35:49;99100.56;;;1.20;97.05
32733;BME280;11867;51.198;11.966;2024-02-26T03:41:12;99092.66;;;1.58;97.42
32733;BME280;11867;51.198;11.966;2024-02-26T03:46:37;99098.03;;;1.58;97.26
32733;BME280;11867;51.198;11.966;2024-02-26T03:52:00;99104.44;;;0.69;100.00
32733;BME280;11867;51.198;11.966;2024-02-26T03:57:23;99100.31;;;0.44;100.00
32733;BME280;11867;51.198;11.966;2024-02-26T04:02:47;99101.66;;;1.69;97.69
32733;BME280;11867;51.198;11.966;2024-02-26T04:08:11;99109.66;;;1.91;95.05
32733;BME280;11867;51.198;11.966;2024-02-26T04:13:34;99107.38;;;1.28;97.43
32733;BME280;11867;51.198;11.966;2024-02-26T04:18:58;99121.19;;;1.37;96.03
32733;BME280;11867;51.198;11.966;2024-02-26T04:24:21;99114.53;;;1.94;93.63
32733;BME280;11867;51.198;11.966;2024-02-26T04:29:44;99118.75;;;1.85;94.56
32733;BME280;11867;51.198;11.966;2024-02-26T04:35:09;99119.06;;;0.61;100.00
32733;BME280;11867;51.198;11.966;2024-02-26T04:40:32;99114.28;;;1.02;100.00
32733;BME280;11867;51.198;11.966;2024-02-26T04:45:55;99113.78;;;0.49;100.00
32733;BME280;11867;51.198;11.966;2024-02-26T04:51:20;99128.00;;;0.33;100.00
32733;BME280;11867;51.198;11.966;2024-02-26T04:56:43;99138.88;;;0.94;100.00
32733;BME280;11867;51.198;11.966;2024-02-26T05:02:06;99136.66;;;1.08;97.84
32733;BME280;11867;51.198;11.966;2024-02-26T05:07:31;99144.72;;;0.74;100.00
32733;BME280;11867;51.198;11.966;2024-02-26T05:12:54;99139.22;;;1.64;97.22
32733;BME280;11867;51.198;11.966;2024-02-26T05:18:16;99134.25;;;0.55;100.00
32733;BME280;11867;51.198;11.966;2024-02-26T05:23:41;99123.56;;;0.94;100.00
32733;BME280;11867;51.198;11.966;2024-02-26T05:29:05;99128.69;;;1.84;97.29
32733;BME280;11867;51.198;11.966;2024-02-26T05:34:28;99133.78;;;1.86;94.48
32733;BME280;11867;51.198;11.966;2024-02-26T05:39:54;99125.63;;;2.02;95.33
32733;BME280;11867;51.198;11.966;2024-02-26T05:45:17;99122.56;;;2.48;92.00
32733;BME280;11867;51.198;11.966;2024-02-26T05:50:40;99118.94;;;2.70;90.99
32733;BME280;11867;51.198;11.966;2024-02-26T05:56:05;99123.53;;;2.74;91.20
32733;BME280;11867;51.198;11.966;2024-02-26T06:01:28;99136.66;;;2.66;90.60
32733;BME280;11867;51.198;11.966;2024-02-26T06:06:52;99143.78;;;2.87;89.85
32733;BME280;11867;51.198;11.966;2024-02-26T06:12:16;99147.41;;;3.03;89.55
32733;BME280;11867;51.198;11.966;2024-02-26T06:17:39;99152.03;;;3.13;89.73
32733;BME280;11867;51.198;11.966;2024-02-26T06:23:02;99149.28;;;3.02;91.52
32733;BME280;11867;51.198;11.966;2024-02-26T06:28:26;99154.72;;;2.70;92.89
32733;BME280;11867;51.198;11.966;2024-02-26T06:33:52;99158.03;;;2.82;93.04
32733;BME280;11867;51.198;11.966;2024-02-26T06:39:15;99165.06;;;3.31;91.29
32733;BME280;11867;51.198;11.966;2024-02-26T06:44:41;99168.75;;;3.15;94.40
32733;BME280;11867;51.198;11.966;2024-02-26T06:50:04;99171.63;;;3.46;93.52
32733;BME280;11867;51.198;11.966;2024-02-26T06:55:27;99189.13;;;3.48;95.19
32733;BME280;11867;51.198;11.966;2024-02-26T07:00:51;99193.47;;;3.54;94.61
32733;BME280;11867;51.198;11.966;2024-02-26T07:06:14;99191.66;;;3.17;97.53
32733;BME280;11867;51.198;11.966;2024-02-26T07:11:37;99190.06;;;3.21;98.48
32733;BME280;11867;51.198;11.966;2024-02-26T07:17:05;99189.31;;;3.31;99.18
32733;BME280;11867;51.198;11.966;2024-02-26T07:22:28;99199.91;;;4.16;94.39
32733;BME280;11867;51.198;11.966;2024-02-26T07:27:51;99201.03;;;4.56;93.38
32733;BME280;11867;51.198;11.966;2024-02-26T07:33:15;99204.22;;;4.22;94.75
32733;BME280;11867;51.198;11.966;2024-02-26T07:38:38;99211.03;;;4.56;94.10
32733;BME280;11867;51.198;11.966;2024-02-26T07:44:04;99209.69;;;4.79;91.70
32733;BME280;11867;51.198;11.966;2024-02-26T07:49:29;99211.56;;;4.68;93.72
32733;BME280;11867;51.198;11.966;2024-02-26T07:54:52;99206.41;;;5.23;93.09
32733;BME280;11867;51.198;11.966;2024-02-26T08:00:15;99207.38;;;5.63;90.69
32733;BME280;11867;51.198;11.966;2024-02-26T08:05:41;99202.66;;;4.62;94.64
32733;BME280;11867;51.198;11.966;2024-02-26T08:11:05;99207.50;;;4.71;98.13
32733;BME280;11867;51.198;11.966;2024-02-26T08:16:28;99204.72;;;5.47;94.62
32733;BME280;11867;51.198;11.966;2024-02-26T08:21:54;99212.56;;;5.54;93.82
32733;BME280;11867;51.198;11.966;2024-02-26T08:27:17;99224.66;;;6.32;89.64
32733;BME280;11867;51.198;11.966;2024-02-26T08:32:43;99227.19;;;5.33;95.91
32733;BME280;11867;51.198;11.966;2024-02-26T08:38:10;99230.56;;;6.44;90.51
32733;BME280;11867;51.198;11.966;2024-02-26T08:43:34;99236.66;;;6.21;90.58
32733;BME280;11867;51.198;11.966;2024-02-26T08:48:57;99231.97;;;6.37;90.50
32733;BME280;11867;51.198;11.966;2024-02-26T08:54:21;99232.88;;;6.61;90.02
32733;BME280;11867;51.198;11.966;2024-02-26T08:59:46;99235.16;;;6.49;91.19
32733;BME280;11867;51.198;11.966;2024-02-26T09:05:09;99224.84;;;5.91;94.80
32733;BME280;11867;51.198;11.966;2024-02-26T09:10:34;99235.91;;;6.05;94.29
32733;BME280;11867;51.198;11.966;2024-02-26T09:15:57;99230.19;;;6.96;89.20
32733;BME280;11867;51.198;11.966;2024-02-26T09:21:20;99226.59;;;6.71;92.36
32733;BME280;11867;51.198;11.966;2024-02-26T09:26:46;99230.09;;;7.06;90.37
32733;BME280;11867;51.198;11.966;2024-02-26T09:32:09;99230.94;;;6.67;90.53
32733;BME280;11867;51.198;11.966;2024-02-26T09:37:33;99231.72;;;7.36;88.46
32733;BME280;11867;51.198;11.966;2024-02-26T09:43:00;99246.16;;;7.56;86.58
32733;BME280;11867;51.198;11.966;2024-02-26T09:48:24;99247.66;;;7.14;88.95
32733;BME280;11867;51.198;11.966;2024-02-26T09:53:51;99247.22;;;7.60;88.25
32733;BME280;11867;51.198;11.966;2024-02-26T09:59:17;99250.09;;;7.44;88.89
32733;BME280;11867;51.198;11.966;2024-02-26T10:04:40;99244.03;;;7.23;90.63
32733;BME280;11867;51.198;11.966;2024-02-26T10:10:09;99248.53;;;7.38;89.78
32733;BME280;11867;51.198;11.966;2024-02-26T10:15:33;99246.69;;;7.58;88.85
32733;BME280;11867;51.198;11.966;2024-02-26T10:20:59;99243.25;;;8.38;84.44
32733;BME280;11867;51.198;11.966;2024-02-26T10:26:23;99243.78;;;8.21;85.62
32733;BME280;11867;51.198;11.966;2024-02-26T10:31:48;99237.97;;;7.61;89.69
32733;BME280;11867;51.198;11.966;2024-02-26T10:37:11;99248.00;;;7.60;90.92
32733;BME280;11867;51.198;11.966;2024-02-26T10:42:34;99249.84;;;7.41;91.63
32733;BME280;11867;51.198;11.966;2024-02-26T10:47:58;99247.84;;;7.76;90.75
32733;BME280;11867;51.198;11.966;2024-02-26T10:53:23;99254.25;;;8.09;88.16
32733;BME280;11867;51.198;11.966;2024-02-26T10:58:48;99261.34;;;7.81;91.75
32733;BME280;11867;51.198;11.966;2024-02-26T11:04:13;99248.38;;;9.16;85.68
32733;BME280;11867;51.198;11.966;2024-02-26T11:09:37;99232.63;;;9.59;83.30
32733;BME280;11867;51.198;11.966;2024-02-26T11:15:05;99233.53;;;9.55;82.62
32733;BME280;11867;51.198;11.966;2024-02-26T11:20:32;99237.31;;;10.50;80.03
32733;BME280;11867;51.198;11.966;2024-02-26T11:25:56;99243.13;;;11.17;76.75
32733;BME280;11867;51.198;11.966;2024-02-26T11:31:24;99244.59;;;11.00;77.23
32733;BME280;11867;51.198;11.966;2024-02-26T11:36:51;99255.13;;;10.93;77.52
32733;BME280;11867;51.198;11.966;2024-02-26T11:42:15;99242.25;;;11.39;76.70
32733;BME280;11867;51.198;11.966;2024-02-26T11:47:38;99235.22;;;11.78;74.98
32733;BME280;11867;51.198;11.966;2024-02-26T11:53:21;99246.09;;;12.09;74.27
32733;BME280;11867;51.198;11.966;2024-02-26T11:58:44;99243.03;;;11.62;75.98
32733;BME280;11867;51.198;11.966;2024-02-26T12:04:11;99249.53;;;11.83;75.85
32733;BME280;11867;51.198;11.966;2024-02-26T12:09:37;99248.03;;;11.68;75.74
32733;BME280;11867;51.198;11.966;2024-02-26T12:15:01;99250.47;;;12.10;74.70
32733;BME280;11867;51.198;11.966;2024-02-26T12:20:25;99250.00;;;12.25;74.37
32733;BME280;11867;51.198;11.966;2024-02-26T12:25:49;99263.25;;;12.67;73.20
32733;BME280;11867;51.198;11.966;2024-02-26T12:31:12;99267.09;;;12.48;73.44
32733;BME280;11867;51.198;11.966;2024-02-26T12:36:36;99274.84;;;12.90;72.81
32733;BME280;11867;51.198;11.966;2024-02-26T12:42:01;99269.75;;;13.62;71.18
32733;BME280;11867;51.198;11.966;2024-02-26T12:47:24;99274.16;;;13.28;71.83
32733;BME280;11867;51.198;11.966;2024-02-26T12:52:51;99272.84;;;13.51;71.30
32733;BME280;11867;51.198;11.966;2024-02-26T12:58:16;99280.25;;;13.51;71.53
32733;BME280;11867;51.198;11.966;2024-02-26T13:03:39;99280.50;;;13.76;71.45
32733;BME280;11867;51.198;11.966;2024-02-26T13:09:02;99273.22;;;15.32;67.08
32733;BME280;11867;51.198;11.966;2024-02-26T13:14:27;99277.75;;;16.72;63.84
32733;BME280;11867;51.198;11.966;2024-02-26T13:19:52;99283.09;;;16.16;62.50
32733;BME280;11867;51.198;11.966;2024-02-26T13:25:20;99288.00;;;14.35;68.93
32733;BME280;11867;51.198;11.966;2024-02-26T13:30:51;99291.66;;;14.09;68.91
32733;BME280;11867;51.198;11.966;2024-02-26T13:36:14;99299.31;;;12.95;72.69
32733;BME280;11867;51.198;11.966;2024-02-26T13:41:40;99302.53;;;13.32;71.61
32733;BME280;11867;51.198;11.966;2024-02-26T13:47:06;99310.72;;;12.97;71.78
32733;BME280;11867;51.198;11.966;2024-02-26T13:52:29;99326.38;;;12.22;74.23
32733;BME280;11867;51.198;11.966;2024-02-26T13:57:54;99325.94;;;12.46;72.95
32733;BME280;11867;51.198;11.966;2024-02-26T14:03:19;99329.91;;;11.60;76.28
32733;BME280;11867;51.198;11.966;2024-02-26T14:08:42;99326.09;;;12.32;73.65
32733;BME280;11867;51.198;11.966;2024-02-26T14:14:07;99326.66;;;12.11;74.15
32733;BME280;11867;51.198;11.966;2024-02-26T14:19:31;99338.03;;;11.82;75.23
32733;BME280;11867;51.198;11.966;2024-02-26T14:24:54;99344.75;;;11.99;74.75
32733;BME280;11867;51.198;11.966;2024-02-26T14:30:17;99344.22;;;11.43;77.14
32733;BME280;11867;51.198;11.966;2024-02-26T14:35:42;99337.63;;;11.35;77.03
32733;BME280;11867;51.198;11.966;2024-02-26T14:41:04;99340.25;;;12.03;75.76
32733;BME280;11867;51.198;11.966;2024-02-26T14:46:27;99341.03;;;12.35;74.52
32733;BME280;11867;51.198;11.966;2024-02-26T14:51:52;99344.19;;;11.88;76.83
32733;BME280;11867;51.198;11.966;2024-02-26T14:57:15;99336.59;;;11.76;76.80
32733;BME280;11867;51.198;11.966;2024-02-26T15:02:38;99325.34;;;12.09;76.19
32733;BME280;11867;51.198;11.966;2024-02-26T15:08:03;99330.31;;;12.07;76.09
32733;BME280;11867;51.198;11.966;2024-02-26T15:13:26;99333.63;;;12.26;76.08
32733;BME280;11867;51.198;11.966;2024-02-26T15:18:49;99343.63;;;12.48;74.68
32733;BME280;11867;51.198;11.966;2024-02-26T15:24:13;99369.09;;;12.58;74.52
32733;BME280;11867;51.198;11.966;2024-02-26T15:29:38;99369.69;;;12.06;76.19
32733;BME280;11867;51.198;11.966;2024-02-26T15:35:01;99387.88;;;12.50;74.49
32733;BME280;11867;51.198;11.966;2024-02-26T15:40:27;99392.78;;;12.31;74.52
32733;BME280;11867;51.198;11.966;2024-02-26T15:45:51;99405.78;;;12.25;74.70
32733;BME280;11867;51.198;11.966;2024-02-26T15:51:25;99420.13;;;11.77;76.36
32733;BME280;11867;51.198;11.966;2024-02-26T15:56:49;99415.63;;;11.81;76.08
32733;BME280;11867;51.198;11.966;2024-02-26T16:02:13;99433.25;;;11.89;75.17
32733;BME280;11867;51.198;11.966;2024-02-26T16:07:39;99440.66;;;12.20;73.81
32733;BME280;11867;51.198;11.966;2024-02-26T16:13:05;99447.91;;;12.64;73.17
32733;BME280;11867;51.198;11.966;2024-02-26T16:18:29;99458.56;;;12.75;72.25
32733;BME280;11867;51.198;11.966;2024-02-26T16:23:52;99471.72;;;12.64;72.76
32733;BME280;11867;51.198;11.966;2024-02-26T16:29:17;99474.56;;;12.19;74.28
32733;BME280;11867;51.198;11.966;2024-02-26T16:34:39;99489.44;;;12.35;73.92
32733;BME280;11867;51.198;11.966;2024-02-26T16:40:04;99489.22;;;12.23;74.88
32733;BME280;11867;51.198;11.966;2024-02-26T16:45:31;99491.84;;;11.69;76.70
32733;BME280;11867;51.198;11.966;2024-02-26T16:50:54;99492.66;;;12.06;75.54
32733;BME280;11867;51.198;11.966;2024-02-26T16:56:17;99502.28;;;12.03;75.84
32733;BME280;11867;51.198;11.966;2024-02-26T17:01:45;99514.16;;;11.85;76.07
32733;BME280;11867;51.198;11.966;2024-02-26T17:07:09;99533.44;;;11.66;77.59
32733;BME280;11867;51.198;11.966;2024-02-26T17:12:32;99541.69;;;11.75;77.35
32733;BME280;11867;51.198;11.966;2024-02-26T17:17:57;99543.72;;;11.69;77.44
32733;BME280;11867;51.198;11.966;2024-02-26T17:23:20;99555.50;;;11.56;78.16
32733;BME280;11867;51.198;11.966;2024-02-26T17:28:43;99568.25;;;11.46;78.56
32733;BME280;11867;51.198;11.966;2024-02-26T17:34:08;99579.88;;;11.52;78.44
32733;BME280;11867;51.198;11.966;2024-02-26T17:39:31;99588.88;;;11.52;78.58
32733;BME280;11867;51.198;11.966;2024-02-26T17:44:55;99599.69;;;11.44;78.68
32733;BME280;11867;51.198;11.966;2024-02-26T17:50:19;99602.84;;;11.37;79.63
32733;BME280;11867;51.198;11.966;2024-02-26T17:55:44;99609.91;;;11.38;79.27
32733;BME280;11867;51.198;11.966;2024-02-26T18:01:07;99610.81;;;11.34;79.48
32733;BME280;11867;51.198;11.966;2024-02-26T18:06:32;99615.47;;;11.33;79.42
32733;BME280;11867;51.198;11.966;2024-02-26T18:11:57;99618.50;;;11.04;80.43
32733;BME280;11867;51.198;11.966;2024-02-26T18:17:21;99621.16;;;10.76;81.61
32733;BME280;11867;51.198;11.966;2024-02-26T18:22:46;99620.25;;;10.81;81.50
32733;BME280;11867;51.198;11.966;2024-02-26T18:28:11;99626.81;;;9.71;86.42
32733;BME280;11867;51.198;11.966;2024-02-26T18:33:35;99642.81;;;9.78;87.45
32733;BME280;11867;51.198;11.966;2024-02-26T18:39:00;99654.97;;;10.23;84.91
32733;BME280;11867;51.198;11.966;2024-02-26T18:44:23;99643.44;;;10.32;84.38
32733;BME280;11867;51.198;11.966;2024-02-26T18:49:46;99657.09;;;10.26;84.39
32733;BME280;11867;51.198;11.966;2024-02-26T18:55:12;99665.59;;;10.44;83.35
32733;BME280;11867;51.198;11.966;2024-02-26T19:00:35;99666.72;;;10.19;84.06
32733;BME280;11867;51.198;11.966;2024-02-26T19:05:58;99678.69;;;10.42;83.55
32733;BME280;11867;51.198;11.966;2024-02-26T19:11:22;99689.00;;;10.45;83.51
32733;BME280;11867;51.198;11.966;2024-02-26T19:16:46;99694.97;;;10.47;82.72
32733;BME280;11867;51.198;11.966;2024-02-26T19:22:09;99696.31;;;10.06;84.40
32733;BME280;11867;51.198;11.966;2024-02-26T19:27:36;99695.59;;;10.20;83.62
32733;BME280;11867;51.198;11.966;2024-02-26T19:32:59;99713.91;;;10.14;83.94
32733;BME280;11867;51.198;11.966;2024-02-26T19:38:22;99721.59;;;9.88;84.96
32733;BME280;11867;51.198;11.966;2024-02-26T19:43:46;99728.84;;;10.17;83.75
32733;BME280;11867;51.198;11.966;2024-02-26T19:49:10;99735.63;;;9.76;85.62
32733;BME280;11867;51.198;11.966;2024-02-26T19:54:36;99744.78;;;10.28;83.02
32733;BME280;11867;51.198;11.966;2024-02-26T20:00:01;99760.09;;;10.24;82.63
32733;BME280;11867;51.198;11.966;2024-02-26T20:05:24;99761.34;;;9.65;84.25
32733;BME280;11867;51.198;11.966;2024-02-26T20:10:47;99764.00;;;10.18;83.21
32733;BME280;11867;51.198;11.966;2024-02-26T20:16:13;99769.22;;;10.58;81.27
32733;BME280;11867;51.198;11.966;2024-02-26T20:21:36;99784.38;;;10.45;81.70
32733;BME280;11867;51.198;11.966;2024-02-26T20:27:02;99777.03;;;10.21;82.55
32733;BME280;11867;51.198;11.966;2024-02-26T20:32:26;99768.41;;;10.57;81.29
32733;BME280;11867;51.198;11.966;2024-02-26T20:37:51;99779.22;;;10.43;81.15
32733;BME280;11867;51.198;11.966;2024-02-26T20:43:14;99780.81;;;10.25;81.45
32733;BME280;11867;51.198;11.966;2024-02-26T20:48:39;99795.38;;;10.40;81.56
32733;BME280;11867;51.198;11.966;2024-02-26T20:54:03;99796.84;;;10.51;80.87
32733;BME280;11867;51.198;11.966;2024-02-26T20:59:30;99808.03;;;10.49;80.89
32733;BME280;11867;51.198;11.966;2024-02-26T21:04:55;99807.00;;;10.45;81.10
32733;BME280;11867;51.198;11.966;2024-02-26T21:10:19;99820.56;;;10.26;81.58
32733;BME280;11867;51.198;11.966;2024-02-26T21:15:45;99831.38;;;10.37;81.29
32733;BME280;11867;51.198;11.966;2024-02-26T21:21:10;99833.22;;;10.41;81.57
32733;BME280;11867;51.198;11.966;2024-02-26T21:26:33;99838.97;;;10.10;82.94
32733;BME280;11867;51.198;11.966;2024-02-26T21:31:56;99853.97;;;10.37;82.13
32733;BME280;11867;51.198;11.966;2024-02-26T21:37:20;99858.16;;;10.29;82.53
32733;BME280;11867;51.198;11.966;2024-02-26T21:42:43;99863.69;;;10.19;83.32
32733;BME280;11867;51.198;11.966;2024-02-26T21:48:07;99883.78;;;9.70;85.31
32733;BME280;11867;51.198;11.966;2024-02-26T21:53:31;99897.53;;;10.13;83.83
32733;BME280;11867;51.198;11.966;2024-02-26T21:58:55;99896.38;;;9.90;84.55
32733;BME280;11867;51.198;11.966;2024-02-26T22:04:18;99908.06;;;9.96;84.25
32733;BME280;11867;51.198;11.966;2024-02-26T22:09:42;99908.72;;;9.82;85.37
32733;BME280;11867;51.198;11.966;2024-02-26T22:15:07;99907.25;;;9.95;84.72
32733;BME280;11867;51.198;11.966;2024-02-26T22:20:30;99921.31;;;10.02;84.07
32733;BME280;11867;51.198;11.966;2024-02-26T22:25:55;99915.88;;;10.02;83.59
32733;BME280;11867;51.198;11.966;2024-02-26T22:31:18;99917.38;;;9.89;84.65
32733;BME280;11867;51.198;11.966;2024-02-26T22:36:41;99922.19;;;9.98;84.40
32733;BME280;11867;51.198;11.966;2024-02-26T22:42:05;99918.94;;;9.96;84.15
32733;BME280;11867;51.198;11.966;2024-02-26T22:47:28;99931.50;;;9.92;84.13
32733;BME280;11867;51.198;11.966;2024-02-26T22:52:51;99928.06;;;9.81;84.78
32733;BME280;11867;51.198;11.966;2024-02-26T22:58:15;99933.44;;;9.91;84.17
32733;BME280;11867;51.198;11.966;2024-02-26T23:03:38;99947.91;;;9.86;84.63
32733;BME280;11867;51.198;11.966;2024-02-26T23:09:01;99952.63;;;9.76;84.66
32733;BME280;11867;51.198;11.966;2024-02-26T23:14:26;99971.13;;;9.39;85.36
32733;BME280;11867;51.198;11.966;2024-02-26T23:19:54;99965.53;;;9.20;86.41
32733;BME280;11867;51.198;11.966;2024-02-26T23:25:17;99966.44;;;9.00;86.94
32733;BME280;11867;51.198;11.966;2024-02-26T23:30:42;99963.72;;;9.00;86.05
32733;BME280;11867;51.198;11.966;2024-02-26T23:36:05;99965.53;;;8.50;87.71
32733;BME280;11867;51.198;11.966;2024-02-26T23:41:29;99974.25;;;8.32;89.04
32733;BME280;11867;51.198;11.966;2024-02-26T23:46:56;99979.63;;;8.62;87.25
32733;BME280;11867;51.198;11.966;2024-02-26T23:52:19;99978.75;;;8.77;86.60
32733;BME280;11867;51.198;11.966;2024-02-26T23:57:41;99984.72;;;8.79;86.75
